createdAt,value
2016-12-21T00:00:24.884Z,1021.9
2016-12-21T00:01:35.157Z,1021.9
2016-12-21T00:02:44.792Z,1021.92
2016-12-21T00:03:54.749Z,1021.93
2016-12-21T00:05:05.009Z,1021.9
2016-12-21T00:06:14.972Z,1021.86
2016-12-21T00:07:25.250Z,1021.89
2016-12-21T00:08:35.518Z,1021.92
2016-12-21T00:09:45.486Z,1021.9
2016-12-21T00:10:55.762Z,1021.91
2016-12-21T00:12:06.038Z,1021.9
2016-12-21T00:13:16.306Z,1021.86
2016-12-21T00:14:26.569Z,1021.8
2016-12-21T00:15:36.831Z,1021.78
2016-12-21T00:16:47.099Z,1021.76
2016-12-21T00:17:57.372Z,1021.78
2016-12-21T00:19:07.626Z,1021.74
2016-12-21T00:20:17.890Z,1021.69
2016-12-21T00:21:27.835Z,1021.76
2016-12-21T00:22:38.105Z,1021.72
2016-12-21T00:23:48.073Z,1021.72
2016-12-21T00:24:58.038Z,1021.68
2016-12-21T00:26:07.999Z,1021.69
2016-12-21T00:27:17.644Z,1021.66
2016-12-21T00:28:27.907Z,1021.69
2016-12-21T00:29:38.176Z,1021.69
2016-12-21T00:30:47.814Z,1021.64
2016-12-21T00:31:58.093Z,1021.69
2016-12-21T00:33:08.067Z,1021.69
2016-12-21T00:34:18.329Z,1021.68
2016-12-21T00:35:28.608Z,1021.68
2016-12-21T00:36:38.873Z,1021.66
2016-12-21T00:37:49.142Z,1021.65
2016-12-21T00:38:59.100Z,1021.63
2016-12-21T00:40:09.382Z,1021.65
2016-12-21T00:41:19.659Z,1021.64
2016-12-21T00:42:29.665Z,1021.63
2016-12-21T00:43:39.923Z,1021.6
2016-12-21T00:44:50.192Z,1021.55
2016-12-21T00:45:59.850Z,1021.56
2016-12-21T00:47:10.121Z,1021.61
2016-12-21T00:48:20.398Z,1021.57
2016-12-21T00:49:30.057Z,1021.59
2016-12-21T00:50:40.004Z,1021.65
2016-12-21T00:51:49.956Z,1021.66
2016-12-21T00:52:59.905Z,1021.63
2016-12-21T00:54:10.163Z,1021.63
2016-12-21T00:55:20.430Z,1021.67
2016-12-21T00:56:30.092Z,1021.65
2016-12-21T00:57:40.055Z,1021.58
2016-12-21T00:58:49.703Z,1021.59
2016-12-21T00:59:59.047Z,1021.56
2016-12-21T01:01:08.729Z,1021.53
2016-12-21T01:02:18.387Z,1021.52
2016-12-21T01:03:28.343Z,1021.48
2016-12-21T01:04:38.282Z,1021.5
2016-12-21T01:05:48.247Z,1021.45
2016-12-21T01:06:57.897Z,1021.49
2016-12-21T01:08:07.843Z,1021.47
2016-12-21T01:09:17.820Z,1021.5
2016-12-21T01:10:28.083Z,1021.51
2016-12-21T01:11:37.734Z,1021.5
2016-12-21T01:12:48.009Z,1021.54
2016-12-21T01:13:57.641Z,1021.51
2016-12-21T01:15:07.906Z,1021.5
2016-12-21T01:16:17.548Z,1021.45
2016-12-21T01:17:27.817Z,1021.41
2016-12-21T01:18:38.182Z,1021.41
2016-12-21T01:19:48.437Z,1021.42
2016-12-21T01:20:58.088Z,1021.45
2016-12-21T01:22:08.344Z,1021.44
2016-12-21T01:23:18.610Z,1021.47
2016-12-21T01:24:28.878Z,1021.44
2016-12-21T01:25:39.141Z,1021.54
2016-12-21T01:26:49.985Z,1021.53
2016-12-21T01:28:00.260Z,1021.49
2016-12-21T01:29:10.517Z,1021.49
2016-12-21T01:30:20.465Z,1021.47
2016-12-21T01:31:30.734Z,1021.48
2016-12-21T01:32:40.698Z,1021.45
2016-12-21T01:33:50.996Z,1021.45
2016-12-21T01:35:00.945Z,1021.45
2016-12-21T01:36:11.207Z,1021.43
2016-12-21T01:37:21.569Z,1021.4
2016-12-21T01:38:31.217Z,1021.38
2016-12-21T01:39:40.894Z,1021.38
2016-12-21T01:40:50.840Z,1021.35
2016-12-21T01:42:01.102Z,1021.31
2016-12-21T01:43:11.348Z,1021.3
2016-12-21T01:44:21.616Z,1021.28
2016-12-21T01:45:31.878Z,1021.28
2016-12-21T01:46:41.207Z,1021.23
2016-12-21T01:47:51.165Z,1021.23
2016-12-21T01:49:01.121Z,1021.24
2016-12-21T01:50:11.399Z,1021.23
2016-12-21T01:51:21.645Z,1021.25
2016-12-21T01:52:31.908Z,1021.22
2016-12-21T01:53:42.176Z,1021.18
2016-12-21T01:54:52.170Z,1021.15
2016-12-21T01:56:01.809Z,1021.13
2016-12-21T01:57:11.788Z,1021.1
2016-12-21T01:58:21.430Z,1021.09
2016-12-21T01:59:31.392Z,1021.06
2016-12-21T02:00:41.648Z,1021.07
2016-12-21T02:01:51.606Z,1021.08
2016-12-21T02:03:01.564Z,1021.07
2016-12-21T02:04:11.203Z,1021.05
2016-12-21T02:05:21.149Z,1021.06
2016-12-21T02:06:31.107Z,1021.09
2016-12-21T02:07:41.078Z,1021.11
2016-12-21T02:08:51.350Z,1021.07
2016-12-21T02:10:01.609Z,1021.06
2016-12-21T02:11:11.874Z,1021.14
2016-12-21T02:12:21.209Z,1021.13
2016-12-21T02:13:31.459Z,1021.1
2016-12-21T02:14:41.715Z,1021.12
2016-12-21T02:15:51.993Z,1021.09
2016-12-21T02:17:02.248Z,1021.11
2016-12-21T02:18:12.508Z,1021.15
2016-12-21T02:19:22.469Z,1021.08
2016-12-21T02:20:32.735Z,1021.03
2016-12-21T02:21:43.000Z,1021.04
2016-12-21T02:22:53.417Z,1021.01
2016-12-21T02:24:03.672Z,1021.04
2016-12-21T02:25:13.945Z,1021
2016-12-21T02:26:24.213Z,1020.99
2016-12-21T02:27:34.474Z,1020.96
2016-12-21T02:28:44.424Z,1020.96
2016-12-21T02:29:54.718Z,1020.98
2016-12-21T02:31:04.673Z,1021.01
2016-12-21T02:32:15.336Z,1020.99
2016-12-21T02:33:25.598Z,1021.05
2016-12-21T02:34:35.553Z,1021.09
2016-12-21T02:35:45.805Z,1021.07
2016-12-21T02:36:55.754Z,1021.07
2016-12-21T02:38:05.409Z,1021.14
2016-12-21T02:39:15.686Z,1021.16
2016-12-21T02:40:25.633Z,1021.2
2016-12-21T02:41:35.900Z,1021.22
2016-12-21T02:42:45.857Z,1021.17
2016-12-21T02:43:56.122Z,1021.15
2016-12-21T02:45:06.074Z,1021.15
2016-12-21T02:46:16.352Z,1021.16
2016-12-21T02:47:26.307Z,1021.15
2016-12-21T02:48:36.566Z,1021.15
2016-12-21T02:49:46.820Z,1021.14
2016-12-21T02:50:57.072Z,1021.16
2016-12-21T02:52:07.337Z,1021.15
2016-12-21T02:53:17.293Z,1021.18
2016-12-21T02:54:27.576Z,1021.11
2016-12-21T02:55:37.846Z,1021.14
2016-12-21T02:56:48.110Z,1021.15
2016-12-21T02:57:57.744Z,1021.11
2016-12-21T02:59:07.701Z,1021.12
2016-12-21T03:00:17.967Z,1021.15
2016-12-21T03:01:27.916Z,1021.12
2016-12-21T03:02:37.870Z,1021.15
2016-12-21T03:03:47.512Z,1021.11
2016-12-21T03:04:57.474Z,1021.13
2016-12-21T03:06:07.438Z,1021.12
2016-12-21T03:07:17.390Z,1021.12
2016-12-21T03:08:27.656Z,1021.13
2016-12-21T03:09:37.320Z,1021.16
2016-12-21T03:10:47.307Z,1021.15
2016-12-21T03:11:57.271Z,1021.14
2016-12-21T03:13:06.919Z,1021.1
2016-12-21T03:14:16.868Z,1021.1
2016-12-21T03:15:27.118Z,1021.1
2016-12-21T03:16:37.370Z,1021.11
2016-12-21T03:17:47.013Z,1021.12
2016-12-21T03:18:57.264Z,1021.07
2016-12-21T03:20:07.517Z,1021.07
2016-12-21T03:21:17.469Z,1021.05
2016-12-21T03:22:27.436Z,1021.08
2016-12-21T03:23:37.404Z,1021.05
2016-12-21T03:24:47.356Z,1021.07
2016-12-21T03:25:57.612Z,1021.03
2016-12-21T03:27:07.877Z,1021.07
2016-12-21T03:28:18.124Z,1021.05
2016-12-21T03:29:28.414Z,1021.05
2016-12-21T03:30:38.674Z,1021.01
2016-12-21T03:31:48.626Z,1020.94
2016-12-21T03:32:58.897Z,1020.89
2016-12-21T03:34:09.156Z,1020.89
2016-12-21T03:35:19.416Z,1020.86
2016-12-21T03:36:29.374Z,1020.85
2016-12-21T03:37:39.017Z,1020.79
2016-12-21T03:38:48.653Z,1020.76
2016-12-21T03:39:58.909Z,1020.78
2016-12-21T03:41:08.855Z,1020.81
2016-12-21T03:42:19.120Z,1020.8
2016-12-21T03:43:28.452Z,1020.78
2016-12-21T03:44:38.442Z,1020.81
2016-12-21T03:45:47.767Z,1020.84
2016-12-21T03:46:58.034Z,1020.87
2016-12-21T03:48:07.705Z,1020.85
2016-12-21T03:49:17.964Z,1020.88
2016-12-21T03:50:27.951Z,1020.91
2016-12-21T03:51:38.220Z,1020.95
2016-12-21T03:52:48.185Z,1020.92
2016-12-21T03:53:58.447Z,1020.98
2016-12-21T03:55:08.713Z,1021.03
2016-12-21T03:56:18.351Z,1020.97
2016-12-21T03:57:27.995Z,1021.04
2016-12-21T03:58:37.947Z,1021
2016-12-21T03:59:47.913Z,1021.03
2016-12-21T04:00:57.865Z,1021.02
2016-12-21T04:02:08.117Z,1021.04
2016-12-21T04:03:18.380Z,1021.02
2016-12-21T04:04:28.652Z,1021.11
2016-12-21T04:05:38.911Z,1021.14
2016-12-21T04:06:49.183Z,1021.11
2016-12-21T04:07:59.430Z,1021.12
2016-12-21T04:09:09.391Z,1021.07
2016-12-21T04:10:19.343Z,1021.11
2016-12-21T04:11:28.991Z,1021.12
2016-12-21T04:12:38.937Z,1021.08
2016-12-21T04:13:48.594Z,1021.12
2016-12-21T04:14:58.841Z,1021.1
2016-12-21T04:16:09.097Z,1021.09
2016-12-21T04:17:19.056Z,1021.08
2016-12-21T04:18:29.312Z,1021.1
2016-12-21T04:19:39.289Z,1021.07
2016-12-21T04:20:49.551Z,1021.05
2016-12-21T04:21:59.525Z,1021.06
2016-12-21T04:23:09.779Z,1021.06
2016-12-21T04:24:20.028Z,1021.01
2016-12-21T04:25:30.273Z,1021.08
2016-12-21T04:26:40.213Z,1021.01
2016-12-21T04:27:50.464Z,1020.97
2016-12-21T04:29:00.746Z,1020.95
2016-12-21T04:30:11.004Z,1020.97
2016-12-21T04:31:20.960Z,1020.96
2016-12-21T04:32:30.937Z,1020.98
2016-12-21T04:33:40.899Z,1020.94
2016-12-21T04:34:51.148Z,1020.96
2016-12-21T04:36:01.104Z,1020.95
2016-12-21T04:37:11.052Z,1020.94
2016-12-21T04:38:21.311Z,1020.97
2016-12-21T04:39:31.265Z,1021
2016-12-21T04:40:41.517Z,1020.97
2016-12-21T04:41:51.782Z,1020.99
2016-12-21T04:43:01.126Z,1021.04
2016-12-21T04:44:11.377Z,1021.05
2016-12-21T04:45:21.661Z,1021.05
2016-12-21T04:46:31.948Z,1021.06
2016-12-21T04:47:41.734Z,1021.08
2016-12-21T04:48:51.379Z,1021.1
2016-12-21T04:50:01.648Z,1021.07
2016-12-21T04:51:11.910Z,1021.11
2016-12-21T04:52:22.166Z,1021.13
2016-12-21T04:53:32.425Z,1021.17
2016-12-21T04:54:42.691Z,1021.2
2016-12-21T04:55:52.956Z,1021.18
2016-12-21T04:57:03.203Z,1021.22
2016-12-21T04:58:13.155Z,1021.22
2016-12-21T04:59:23.410Z,1021.19
2016-12-21T05:00:33.398Z,1021.18
2016-12-21T05:01:43.651Z,1021.22
2016-12-21T05:02:53.593Z,1021.21
2016-12-21T05:04:03.558Z,1021.19
2016-12-21T05:05:13.504Z,1021.22
2016-12-21T05:06:23.762Z,1021.2
2016-12-21T05:07:34.023Z,1021.3
2016-12-21T05:08:43.350Z,1021.28
2016-12-21T05:09:53.296Z,1021.27
2016-12-21T05:11:02.969Z,1021.28
2016-12-21T05:12:12.975Z,1021.31
2016-12-21T05:13:22.930Z,1021.35
2016-12-21T05:14:33.197Z,1021.33
2016-12-21T05:15:43.481Z,1021.33
2016-12-21T05:16:53.429Z,1021.3
2016-12-21T05:18:03.743Z,1021.37
2016-12-21T05:19:13.680Z,1021.38
2016-12-21T05:20:23.933Z,1021.4
2016-12-21T05:21:33.888Z,1021.43
2016-12-21T05:22:44.278Z,1021.43
2016-12-21T05:23:54.557Z,1021.4
2016-12-21T05:25:04.816Z,1021.44
2016-12-21T05:26:15.116Z,1021.46
2016-12-21T05:27:25.408Z,1021.46
2016-12-21T05:28:35.068Z,1021.45
2016-12-21T05:29:45.030Z,1021.43
2016-12-21T05:30:54.672Z,1021.46
2016-12-21T05:32:04.319Z,1021.44
2016-12-21T05:33:13.981Z,1021.42
2016-12-21T05:34:24.238Z,1021.39
2016-12-21T05:35:34.205Z,1021.39
2016-12-21T05:36:43.849Z,1021.37
2016-12-21T05:37:54.137Z,1021.38
2016-12-21T05:39:03.776Z,1021.36
2016-12-21T05:40:13.737Z,1021.42
2016-12-21T05:41:24.003Z,1021.44
2016-12-21T05:42:34.259Z,1021.48
2016-12-21T05:43:44.211Z,1021.48
2016-12-21T05:44:54.153Z,1021.51
2016-12-21T05:46:03.798Z,1021.5
2016-12-21T05:47:13.779Z,1021.49
2016-12-21T05:48:23.936Z,1021.52
2016-12-21T05:49:33.913Z,1021.5
2016-12-21T05:50:44.219Z,1021.5
2016-12-21T05:51:54.198Z,1021.47
2016-12-21T05:53:04.167Z,1021.42
2016-12-21T05:54:14.431Z,1021.49
2016-12-21T05:55:24.486Z,1021.48
2016-12-21T05:56:34.751Z,1021.59
2016-12-21T05:57:45.047Z,1021.56
2016-12-21T05:58:55.324Z,1021.53
2016-12-21T06:00:05.276Z,1021.55
2016-12-21T06:01:15.595Z,1021.56
2016-12-21T06:02:25.562Z,1021.56
2016-12-21T06:03:35.850Z,1021.57
2016-12-21T06:04:46.118Z,1021.58
2016-12-21T06:05:56.108Z,1021.54
2016-12-21T06:07:05.447Z,1021.57
2016-12-21T06:08:15.401Z,1021.6
2016-12-21T06:09:25.360Z,1021.6
2016-12-21T06:10:35.311Z,1021.63
2016-12-21T06:11:45.264Z,1021.68
2016-12-21T06:12:55.527Z,1021.69
2016-12-21T06:14:05.779Z,1021.68
2016-12-21T06:15:15.109Z,1021.66
2016-12-21T06:16:25.369Z,1021.68
2016-12-21T06:17:35.330Z,1021.71
2016-12-21T06:18:45.602Z,1021.74
2016-12-21T06:19:55.295Z,1021.74
2016-12-21T06:21:05.567Z,1021.7
2016-12-21T06:22:15.521Z,1021.71
2016-12-21T06:23:25.793Z,1021.69
2016-12-21T06:24:36.063Z,1021.69
2016-12-21T06:25:45.728Z,1021.63
2016-12-21T06:26:56.000Z,1021.61
2016-12-21T06:28:05.940Z,1021.65
2016-12-21T06:29:15.583Z,1021.6
2016-12-21T06:30:25.539Z,1021.6
2016-12-21T06:31:35.175Z,1021.6
2016-12-21T06:32:45.450Z,1021.58
2016-12-21T06:33:55.402Z,1021.59
2016-12-21T06:35:05.661Z,1021.6
2016-12-21T06:36:15.926Z,1021.66
2016-12-21T06:37:25.583Z,1021.65
2016-12-21T06:38:35.236Z,1021.71
2016-12-21T06:39:45.488Z,1021.69
2016-12-21T06:40:55.133Z,1021.71
2016-12-21T06:42:05.085Z,1021.74
2016-12-21T06:43:15.365Z,1021.76
2016-12-21T06:44:25.683Z,1021.72
2016-12-21T06:45:35.526Z,1021.79
2016-12-21T06:46:45.782Z,1021.79
2016-12-21T06:47:55.740Z,1021.76
2016-12-21T06:49:05.693Z,1021.79
2016-12-21T06:50:15.692Z,1021.78
2016-12-21T06:51:25.760Z,1021.79
2016-12-21T06:52:36.057Z,1021.78
2016-12-21T06:53:46.022Z,1021.74
2016-12-21T06:54:55.980Z,1021.76
2016-12-21T06:56:05.633Z,1021.76
2016-12-21T06:57:15.270Z,1021.81
2016-12-21T06:58:25.539Z,1021.83
2016-12-21T06:59:35.494Z,1021.87
2016-12-21T07:00:45.849Z,1021.98
2016-12-21T07:01:56.125Z,1022.01
2016-12-21T07:03:06.083Z,1022.02
2016-12-21T07:04:16.035Z,1022.04
2016-12-21T07:05:26.300Z,1022.06
2016-12-21T07:06:35.634Z,1022.08
2016-12-21T07:07:45.270Z,1022.08
2016-12-21T07:08:55.574Z,1022.09
2016-12-21T07:10:05.526Z,1022.08
2016-12-21T07:11:15.215Z,1022.04
2016-12-21T07:12:25.519Z,1022.05
2016-12-21T07:13:35.790Z,1022.12
2016-12-21T07:14:45.772Z,1022.14
2016-12-21T07:15:56.038Z,1022.12
2016-12-21T07:17:06.002Z,1022.14
2016-12-21T07:18:15.656Z,1022.15
2016-12-21T07:19:25.621Z,1022.19
2016-12-21T07:20:35.583Z,1022.2
2016-12-21T07:21:45.237Z,1022.18
2016-12-21T07:22:55.493Z,1022.18
2016-12-21T07:24:05.443Z,1022.17
2016-12-21T07:25:15.717Z,1022.15
2016-12-21T07:26:25.985Z,1022.11
2016-12-21T07:27:35.944Z,1022.1
2016-12-21T07:28:46.222Z,1022.1
2016-12-21T07:29:56.222Z,1022.18
2016-12-21T07:31:06.495Z,1022.25
2016-12-21T07:32:16.870Z,1022.27
2016-12-21T07:33:26.852Z,1022.26
2016-12-21T07:34:36.500Z,1022.3
2016-12-21T07:35:46.175Z,1022.33
2016-12-21T07:36:55.841Z,1022.37
2016-12-21T07:38:05.787Z,1022.36
2016-12-21T07:39:16.047Z,1022.32
2016-12-21T07:40:26.327Z,1022.31
2016-12-21T07:41:36.295Z,1022.35
2016-12-21T07:42:46.614Z,1022.38
2016-12-21T07:43:56.869Z,1022.37
2016-12-21T07:45:06.830Z,1022.42
2016-12-21T07:46:16.500Z,1022.38
2016-12-21T07:47:26.471Z,1022.3
2016-12-21T07:48:36.177Z,1022.37
2016-12-21T07:49:46.456Z,1022.42
2016-12-21T07:50:56.168Z,1022.45
2016-12-21T07:52:06.459Z,1022.45
2016-12-21T07:53:16.430Z,1022.5
2016-12-21T07:54:26.882Z,1022.48
2016-12-21T07:55:36.869Z,1022.46
2016-12-21T07:56:46.532Z,1022.39
2016-12-21T07:57:56.885Z,1022.42
2016-12-21T07:59:06.678Z,1022.46
2016-12-21T08:00:16.792Z,1022.49
2016-12-21T08:01:26.791Z,1022.52
2016-12-21T08:02:36.785Z,1022.52
2016-12-21T08:03:46.792Z,1022.52
2016-12-21T08:04:57.094Z,1022.51
2016-12-21T08:06:06.446Z,1022.51
2016-12-21T08:07:16.764Z,1022.58
2016-12-21T08:08:26.479Z,1022.57
2016-12-21T08:09:36.479Z,1022.63
2016-12-21T08:10:47.432Z,1022.61
2016-12-21T08:11:57.534Z,1022.59
2016-12-21T08:13:07.502Z,1022.61
2016-12-21T08:14:16.850Z,1022.61
2016-12-21T08:15:26.857Z,1022.62
2016-12-21T08:16:37.135Z,1022.61
2016-12-21T08:17:47.404Z,1022.56
2016-12-21T08:18:57.443Z,1022.59
2016-12-21T08:20:07.115Z,1022.61
2016-12-21T08:21:17.103Z,1022.63
2016-12-21T08:22:27.386Z,1022.66
2016-12-21T08:23:37.353Z,1022.69
2016-12-21T08:24:47.333Z,1022.72
2016-12-21T08:25:57.008Z,1022.71
2016-12-21T08:27:07.292Z,1022.76
2016-12-21T08:28:17.306Z,1022.8
2016-12-21T08:29:27.615Z,1022.73
2016-12-21T08:30:37.584Z,1022.7
2016-12-21T08:31:47.232Z,1022.75
2016-12-21T08:32:56.902Z,1022.72
2016-12-21T08:34:06.576Z,1022.68
2016-12-21T08:35:16.232Z,1022.66
2016-12-21T08:36:26.806Z,1022.7
2016-12-21T08:37:36.786Z,1022.65
2016-12-21T08:38:47.069Z,1022.73
2016-12-21T08:39:57.056Z,1022.71
2016-12-21T08:41:07.352Z,1022.75
2016-12-21T08:42:17.028Z,1022.8
2016-12-21T08:43:27.333Z,1022.79
2016-12-21T08:44:37.311Z,1022.81
2016-12-21T08:45:47.646Z,1022.82
2016-12-21T08:46:56.686Z,1022.83
2016-12-21T08:48:06.961Z,1022.78
2016-12-21T08:49:17.322Z,1022.81
2016-12-21T08:50:27.604Z,1022.88
2016-12-21T08:51:37.872Z,1022.84
2016-12-21T08:52:47.847Z,1022.84
2016-12-21T08:53:57.818Z,1022.88
2016-12-21T08:55:08.084Z,1022.87
2016-12-21T08:56:18.048Z,1022.92
2016-12-21T08:57:28.030Z,1022.97
2016-12-21T08:58:38.017Z,1023
2016-12-21T08:59:47.705Z,1022.99
2016-12-21T09:00:58.083Z,1023.05
2016-12-21T09:02:08.416Z,1023.07
2016-12-21T09:03:18.717Z,1023.06
2016-12-21T09:04:28.889Z,1023.09
2016-12-21T09:05:38.278Z,1023.09
2016-12-21T09:06:47.938Z,1023.08
2016-12-21T09:07:58.217Z,1023.04
2016-12-21T09:09:08.197Z,1023.06
2016-12-21T09:10:18.540Z,1023.06
2016-12-21T09:11:28.242Z,1023.12
2016-12-21T09:12:37.905Z,1023.15
2016-12-21T09:13:48.181Z,1023.15
2016-12-21T09:14:57.845Z,1023.17
2016-12-21T09:16:07.812Z,1023.14
2016-12-21T09:17:18.123Z,1023.19
2016-12-21T09:18:27.816Z,1023.24
2016-12-21T09:19:37.834Z,1023.26
2016-12-21T09:20:47.834Z,1023.25
2016-12-21T09:21:57.809Z,1023.27
2016-12-21T09:23:07.783Z,1023.27
2016-12-21T09:24:18.059Z,1023.24
2016-12-21T09:25:28.352Z,1023.21
2016-12-21T09:26:38.015Z,1023.23
2016-12-21T09:27:48.391Z,1023.22
2016-12-21T09:28:58.083Z,1023.31
2016-12-21T09:30:08.032Z,1023.29
2016-12-21T09:31:18.313Z,1023.32
2016-12-21T09:32:28.633Z,1023.28
2016-12-21T09:33:38.611Z,1023.36
2016-12-21T09:34:48.919Z,1023.41
2016-12-21T09:35:59.199Z,1023.4
2016-12-21T09:37:09.488Z,1023.35
2016-12-21T09:38:19.485Z,1023.36
2016-12-21T09:39:29.433Z,1023.36
2016-12-21T09:40:39.167Z,1023.35
2016-12-21T09:41:49.162Z,1023.3
2016-12-21T09:42:59.130Z,1023.33
2016-12-21T09:44:09.404Z,1023.33
2016-12-21T09:45:19.055Z,1023.31
2016-12-21T09:46:28.729Z,1023.32
2016-12-21T09:47:39.002Z,1023.31
2016-12-21T09:48:48.974Z,1023.31
2016-12-21T09:49:59.265Z,1023.3
2016-12-21T09:51:09.242Z,1023.27
2016-12-21T09:52:19.536Z,1023.26
2016-12-21T09:53:29.511Z,1023.22
2016-12-21T09:54:39.476Z,1023.24
2016-12-21T09:55:49.758Z,1023.26
2016-12-21T09:57:00.052Z,1023.21
2016-12-21T09:58:10.355Z,1023.25
2016-12-21T09:59:20.350Z,1023.27
2016-12-21T10:00:30.343Z,1023.27
2016-12-21T10:01:40.615Z,1023.26
2016-12-21T10:02:50.878Z,1023.3
2016-12-21T10:04:01.248Z,1023.26
2016-12-21T10:05:11.537Z,1023.29
2016-12-21T10:06:21.199Z,1023.32
2016-12-21T10:07:31.179Z,1023.34
2016-12-21T10:08:41.137Z,1023.35
2016-12-21T10:09:51.424Z,1023.35
2016-12-21T10:11:01.080Z,1023.36
2016-12-21T10:12:11.348Z,1023.33
2016-12-21T10:13:21.333Z,1023.35
2016-12-21T10:14:31.627Z,1023.32
2016-12-21T10:15:41.887Z,1023.31
2016-12-21T10:16:52.155Z,1023.37
2016-12-21T10:18:02.113Z,1023.41
2016-12-21T10:19:12.066Z,1023.4
2016-12-21T10:20:22.034Z,1023.41
2016-12-21T10:21:32.313Z,1023.47
2016-12-21T10:22:41.676Z,1023.46
2016-12-21T10:23:51.660Z,1023.44
2016-12-21T10:25:01.951Z,1023.45
2016-12-21T10:26:12.239Z,1023.41
2016-12-21T10:27:22.512Z,1023.35
2016-12-21T10:28:32.794Z,1023.33
2016-12-21T10:29:42.746Z,1023.31
2016-12-21T10:30:53.033Z,1023.31
2016-12-21T10:32:03.342Z,1023.21
2016-12-21T10:33:13.623Z,1023.26
2016-12-21T10:34:23.636Z,1023.23
2016-12-21T10:35:33.600Z,1023.27
2016-12-21T10:36:43.982Z,1023.22
2016-12-21T10:37:53.627Z,1023.19
2016-12-21T10:39:03.275Z,1023.19
2016-12-21T10:40:13.224Z,1023.2
2016-12-21T10:41:23.223Z,1023.28
2016-12-21T10:42:33.201Z,1023.25
2016-12-21T10:43:43.473Z,1023.24
2016-12-21T10:44:53.753Z,1023.16
2016-12-21T10:46:04.034Z,1023.17
2016-12-21T10:47:14.015Z,1023.15
2016-12-21T10:48:24.168Z,1023.11
2016-12-21T10:49:34.425Z,1023.1
2016-12-21T10:50:44.703Z,1023.2
2016-12-21T10:51:54.677Z,1023.17
2016-12-21T10:53:04.633Z,1023.15
2016-12-21T10:54:14.917Z,1023.15
2016-12-21T10:55:24.885Z,1023.18
2016-12-21T10:56:35.158Z,1023.14
2016-12-21T10:57:45.125Z,1023.13
2016-12-21T10:58:55.417Z,1023.15
2016-12-21T11:00:05.683Z,1023.12
2016-12-21T11:01:15.640Z,1023.09
2016-12-21T11:02:25.908Z,1023.13
2016-12-21T11:03:35.891Z,1023.19
2016-12-21T11:04:46.203Z,1023.16
2016-12-21T11:05:55.878Z,1023.21
2016-12-21T11:07:05.545Z,1023.21
2016-12-21T11:08:15.864Z,1023.24
2016-12-21T11:09:25.855Z,1023.17
2016-12-21T11:10:35.215Z,1023.1
2016-12-21T11:11:45.180Z,1023.18
2016-12-21T11:12:55.442Z,1023.2
2016-12-21T11:14:05.711Z,1023.17
2016-12-21T11:15:15.355Z,1023.19
2016-12-21T11:16:25.309Z,1023.14
2016-12-21T11:17:35.594Z,1023.16
2016-12-21T11:18:45.897Z,1023.22
2016-12-21T11:19:56.164Z,1023.19
2016-12-21T11:21:06.422Z,1023.17
2016-12-21T11:22:16.704Z,1023.12
2016-12-21T11:23:26.670Z,1023.12
2016-12-21T11:24:36.316Z,1023.02
2016-12-21T11:25:46.277Z,1023.1
2016-12-21T11:26:56.232Z,1023.11
2016-12-21T11:28:06.488Z,1023.13
2016-12-21T11:29:16.130Z,1023.11
2016-12-21T11:30:26.468Z,1023.12
2016-12-21T11:31:36.825Z,1023.08
2016-12-21T11:32:46.488Z,1023.1
2016-12-21T11:33:56.149Z,1023.11
2016-12-21T11:35:06.099Z,1023.19
2016-12-21T11:36:16.400Z,1023.27
2016-12-21T11:37:25.753Z,1023.25
2016-12-21T11:38:35.718Z,1023.23
2016-12-21T11:39:45.389Z,1023.21
2016-12-21T11:40:55.353Z,1023.26
2016-12-21T11:42:05.854Z,1023.29
2016-12-21T11:43:16.138Z,1023.33
2016-12-21T11:44:26.121Z,1023.25
2016-12-21T11:45:35.780Z,1023.24
2016-12-21T11:46:45.760Z,1023.19
2016-12-21T11:47:56.042Z,1023.3
2016-12-21T11:49:06.336Z,1023.29
2016-12-21T11:50:16.314Z,1023.33
2016-12-21T11:51:26.580Z,1023.33
2016-12-21T11:52:36.551Z,1023.37
2016-12-21T11:53:46.862Z,1023.34
2016-12-21T11:54:56.875Z,1023.23
2016-12-21T11:56:06.577Z,1023.2
2016-12-21T11:57:16.563Z,1023.25
2016-12-21T11:58:26.539Z,1023.32
2016-12-21T11:59:36.828Z,1023.3
2016-12-21T12:00:47.113Z,1023.29
2016-12-21T12:01:57.395Z,1023.3
2016-12-21T12:03:07.379Z,1023.35
2016-12-21T12:04:17.653Z,1023.38
2016-12-21T12:05:27.922Z,1023.37
2016-12-21T12:06:38.415Z,1023.37
2016-12-21T12:07:48.406Z,1023.4
2016-12-21T12:08:58.054Z,1023.49
2016-12-21T12:10:07.700Z,1023.49
2016-12-21T12:11:17.974Z,1023.41
2016-12-21T12:12:27.936Z,1023.37
2016-12-21T12:13:38.221Z,1023.37
2016-12-21T12:14:47.569Z,1023.38
2016-12-21T12:15:57.853Z,1023.35
2016-12-21T12:17:08.106Z,1023.41
2016-12-21T12:18:18.391Z,1023.38
2016-12-21T12:19:28.045Z,1023.4
2016-12-21T12:20:38.359Z,1023.37
2016-12-21T12:21:48.013Z,1023.42
2016-12-21T12:22:58.008Z,1023.41
2016-12-21T12:24:08.014Z,1023.31
2016-12-21T12:25:18.292Z,1023.32
2016-12-21T12:26:28.254Z,1023.36
2016-12-21T12:27:38.562Z,1023.39
2016-12-21T12:28:48.840Z,1023.36
2016-12-21T12:29:58.491Z,1023.32
2016-12-21T12:31:08.469Z,1023.31
2016-12-21T12:32:18.493Z,1023.34
2016-12-21T12:33:28.772Z,1023.29
2016-12-21T12:34:38.777Z,1023.35
2016-12-21T12:35:48.431Z,1023.42
2016-12-21T12:36:58.709Z,1023.44
2016-12-21T12:38:08.674Z,1023.44
2016-12-21T12:39:18.323Z,1023.46
2016-12-21T12:40:28.611Z,1023.53
2016-12-21T12:41:38.884Z,1023.47
2016-12-21T12:42:48.869Z,1023.44
2016-12-21T12:43:58.862Z,1023.45
2016-12-21T12:45:09.180Z,1023.48
2016-12-21T12:46:19.161Z,1023.45
2016-12-21T12:47:28.845Z,1023.31
2016-12-21T12:48:38.517Z,1023.32
2016-12-21T12:49:48.828Z,1023.4
2016-12-21T12:50:58.501Z,1023.46
2016-12-21T12:52:08.773Z,1023.55
2016-12-21T12:53:18.771Z,1023.58
2016-12-21T12:54:29.062Z,1023.54
2016-12-21T12:55:39.350Z,1023.53
2016-12-21T12:56:49.327Z,1023.48
2016-12-21T12:57:59.370Z,1023.43
2016-12-21T12:59:09.018Z,1023.41
2016-12-21T13:00:18.692Z,1023.4
2016-12-21T13:01:28.974Z,1023.36
2016-12-21T13:02:38.950Z,1023.4
2016-12-21T13:03:49.275Z,1023.41
2016-12-21T13:04:59.581Z,1023.43
2016-12-21T13:06:09.549Z,1023.41
2016-12-21T13:07:19.521Z,1023.45
2016-12-21T13:08:29.501Z,1023.41
2016-12-21T13:09:39.482Z,1023.39
2016-12-21T13:10:49.755Z,1023.36
2016-12-21T13:11:59.738Z,1023.39
2016-12-21T13:13:10.014Z,1023.35
2016-12-21T13:14:19.697Z,1023.37
2016-12-21T13:15:29.364Z,1023.38
2016-12-21T13:16:39.320Z,1023.43
2016-12-21T13:17:49.274Z,1023.44
2016-12-21T13:18:59.246Z,1023.41
2016-12-21T13:20:09.538Z,1023.4
2016-12-21T13:21:19.499Z,1023.46
2016-12-21T13:22:29.825Z,1023.49
2016-12-21T13:23:40.104Z,1023.6
2016-12-21T13:24:50.110Z,1023.63
2016-12-21T13:26:00.408Z,1023.66
2016-12-21T13:27:09.809Z,1023.65
2016-12-21T13:28:19.776Z,1023.58
2016-12-21T13:29:29.745Z,1023.54
2016-12-21T13:30:40.045Z,1023.53
2016-12-21T13:31:50.024Z,1023.54
2016-12-21T13:32:59.994Z,1023.57
2016-12-21T13:34:09.966Z,1023.64
2016-12-21T13:35:19.930Z,1023.6
2016-12-21T13:36:29.898Z,1023.61
2016-12-21T13:37:39.557Z,1023.66
2016-12-21T13:38:49.846Z,1023.7
2016-12-21T13:40:00.088Z,1023.63
2016-12-21T13:41:09.762Z,1023.58
2016-12-21T13:42:19.435Z,1023.58
2016-12-21T13:43:29.451Z,1023.62
2016-12-21T13:44:39.413Z,1023.66
2016-12-21T13:45:49.695Z,1023.63
2016-12-21T13:46:59.995Z,1023.65
2016-12-21T13:48:10.027Z,1023.65
2016-12-21T13:49:20.008Z,1023.68
2016-12-21T13:50:29.672Z,1023.74
2016-12-21T13:51:39.665Z,1023.8
2016-12-21T13:52:49.976Z,1023.8
2016-12-21T13:54:00.501Z,1023.75
2016-12-21T13:55:09.550Z,1023.84
2016-12-21T13:56:19.838Z,1023.78
2016-12-21T13:57:29.507Z,1023.77
2016-12-21T13:58:39.498Z,1023.78
2016-12-21T13:59:49.779Z,1023.8
2016-12-21T14:00:59.818Z,1023.8
2016-12-21T14:02:10.140Z,1023.8
2016-12-21T14:03:20.127Z,1023.81
2016-12-21T14:04:29.797Z,1023.8
2016-12-21T14:05:39.772Z,1023.82
2016-12-21T14:06:50.121Z,1023.79
2016-12-21T14:08:00.402Z,1023.74
2016-12-21T14:09:10.357Z,1023.73
2016-12-21T14:10:20.321Z,1023.67